createdAt,value
2023-03-16T13:01:00.592Z,20.35
2023-03-16T13:02:41.916Z,20.22
2023-03-16T13:03:05.023Z,20.22
2023-03-16T13:04:23.382Z,20.33
2023-03-16T13:06:04.874Z,20.64
2023-03-16T13:06:05.050Z,20.33
2023-03-16T13:07:46.192Z,20.43
2023-03-16T13:09:06.056Z,20.43
2023-03-16T13:09:27.659Z,20.46
2023-03-16T13:11:09.192Z,20.61
2023-03-16T13:12:05.111Z,20.61
2023-03-16T13:12:50.483Z,20.31
2023-03-16T13:14:31.791Z,20.61
2023-03-16T13:15:05.088Z,20.61
2023-03-16T13:16:13.097Z,20.46
2023-03-16T13:17:55.259Z,20.80
2023-03-16T13:18:05.074Z,20.8
2023-03-16T13:19:37.003Z,20.01
2023-03-16T13:21:06.090Z,20.01
2023-03-16T13:21:18.480Z,20.12
2023-03-16T13:22:59.961Z,20.15
2023-03-16T13:24:05.071Z,20.15
2023-03-16T13:24:41.443Z,20.52
2023-03-16T13:26:22.761Z,20.93
2023-03-16T13:27:08.141Z,20.93
2023-03-16T13:28:04.059Z,20.90
2023-03-16T13:29:45.391Z,19.88
2023-03-16T13:30:05.086Z,19.88
2023-03-16T13:31:29.088Z,19.41
2023-03-16T13:33:05.187Z,19.41
2023-03-16T13:33:10.499Z,20.03
2023-03-16T13:34:51.769Z,20.18
2023-03-16T13:36:05.108Z,20.18
2023-03-16T13:36:33.339Z,19.99
2023-03-16T13:38:14.876Z,20.25
2023-03-16T13:39:05.110Z,20.25
2023-03-16T13:39:56.197Z,20.16
2023-03-16T13:41:37.747Z,20.39
2023-03-16T13:42:05.139Z,20.39
2023-03-16T13:43:19.260Z,21.00
2023-03-16T13:45:00.744Z,20.22
2023-03-16T13:45:05.127Z,20.22
2023-03-16T13:46:42.291Z,20.07
2023-03-16T13:48:05.141Z,20.07
2023-03-16T13:48:23.913Z,19.10
2023-03-16T13:50:05.230Z,19.21
2023-03-16T13:51:05.180Z,19.21
2023-03-16T13:51:46.599Z,18.67
2023-03-16T13:53:27.897Z,18.63
2023-03-16T13:54:05.148Z,18.63
2023-03-16T13:55:09.159Z,19.23
2023-03-16T13:56:50.490Z,19.65
2023-03-16T13:57:05.173Z,19.65
2023-03-16T13:58:33.671Z,19.51
2023-03-16T14:00:05.165Z,19.51
2023-03-16T14:00:16.569Z,19.30
2023-03-16T14:01:57.861Z,19.34
2023-03-16T14:03:05.305Z,19.34
2023-03-16T14:03:39.172Z,19.72
2023-03-16T14:05:20.482Z,20.00
2023-03-16T14:06:05.186Z,20
2023-03-16T14:07:01.779Z,20.12
2023-03-16T14:08:43.135Z,20.00
2023-03-16T14:09:05.237Z,20
2023-03-16T14:10:24.405Z,19.57
2023-03-16T14:12:05.230Z,19.57
2023-03-16T14:12:05.735Z,18.71
2023-03-16T14:13:47.073Z,18.75
2023-03-16T14:15:05.190Z,18.75
2023-03-16T14:15:28.808Z,18.52
2023-03-16T14:17:10.260Z,18.69
2023-03-16T14:18:05.311Z,18.69
2023-03-16T14:18:51.550Z,19.00
2023-03-16T14:20:34.934Z,18.39
2023-03-16T14:21:05.226Z,18.39
2023-03-16T14:22:21.117Z,17.88
2023-03-16T14:24:02.802Z,18.32
2023-03-16T14:24:05.234Z,18.32
2023-03-16T14:25:44.334Z,18.28
2023-03-16T14:27:05.259Z,18.28
2023-03-16T14:27:25.617Z,18.25
2023-03-16T14:29:07.174Z,18.85
2023-03-16T14:30:05.240Z,18.85
2023-03-16T14:30:48.997Z,19.39
2023-03-16T14:32:30.470Z,19.58
2023-03-16T14:33:05.303Z,19.58
2023-03-16T14:34:11.795Z,19.41
2023-03-16T14:35:53.770Z,19.24
2023-03-16T14:36:05.277Z,19.24
2023-03-16T14:37:35.128Z,19.52
2023-03-16T14:39:05.242Z,19.52
2023-03-16T14:39:16.441Z,19.43
2023-03-16T14:40:57.731Z,19.90
2023-03-16T14:42:05.274Z,19.9
2023-03-16T14:42:39.026Z,20.24
2023-03-16T14:44:20.312Z,20.26
2023-03-16T14:45:05.276Z,20.26
2023-03-16T14:46:01.642Z,20.20
2023-03-16T14:47:43.002Z,20.30
2023-03-16T14:48:05.283Z,20.3
2023-03-16T14:49:24.312Z,19.48
2023-03-16T14:51:05.261Z,19.48
2023-03-16T14:51:05.568Z,18.24
2023-03-16T14:52:46.857Z,17.68
2023-03-16T14:54:05.264Z,17.68
2023-03-16T14:54:28.170Z,17.69
2023-03-16T14:56:09.476Z,16.66
2023-03-16T14:57:05.269Z,16.66
2023-03-16T14:57:50.741Z,16.07
2023-03-16T14:59:32.050Z,16.36
2023-03-16T15:00:05.326Z,16.36
2023-03-16T15:01:13.361Z,16.41
2023-03-16T15:02:54.683Z,16.44
2023-03-16T15:03:05.454Z,16.44
2023-03-16T15:04:35.996Z,16.20
2023-03-16T15:06:05.329Z,16.2
2023-03-16T15:06:17.319Z,15.81
2023-03-16T15:07:58.594Z,15.38
2023-03-16T15:09:05.336Z,15.38
2023-03-16T15:09:39.888Z,14.87
2023-03-16T15:11:21.286Z,14.45
2023-03-16T15:12:05.456Z,14.45
2023-03-16T15:13:02.632Z,14.34
2023-03-16T15:14:43.976Z,13.90
2023-03-16T15:15:05.358Z,13.9
2023-03-16T15:16:25.357Z,13.20
2023-03-16T15:18:05.348Z,13.2
2023-03-16T15:18:06.837Z,12.84
2023-03-16T15:19:48.116Z,13.10
2023-03-16T15:21:05.374Z,13.1
2023-03-16T15:21:29.402Z,13.16
2023-03-16T15:23:10.685Z,12.56
2023-03-16T15:24:05.334Z,12.56
2023-03-16T15:24:51.985Z,12.47
2023-03-16T15:26:33.296Z,12.31
2023-03-16T15:27:05.392Z,12.31
2023-03-16T15:28:14.614Z,12.28
2023-03-16T15:29:55.909Z,11.60
2023-03-16T15:30:05.363Z,11.6
2023-03-16T15:31:37.285Z,11.45
2023-03-16T15:33:05.453Z,11.45
2023-03-16T15:33:18.652Z,10.92
2023-03-16T15:34:59.970Z,10.75
2023-03-16T15:36:05.386Z,10.75
2023-03-16T15:36:41.386Z,10.57
2023-03-16T15:38:22.720Z,10.48
2023-03-16T15:39:05.405Z,10.48
2023-03-16T15:40:04.076Z,10.43
2023-03-16T15:41:48.050Z,10.67
2023-03-16T15:42:05.388Z,10.67
2023-03-16T15:43:29.616Z,10.72
2023-03-16T15:45:05.399Z,10.72
2023-03-16T15:45:10.898Z,10.57
2023-03-16T15:46:52.274Z,10.30
2023-03-16T15:48:05.409Z,10.3
2023-03-16T15:48:33.585Z,10.24
2023-03-16T15:50:14.885Z,10.37
2023-03-16T15:51:05.390Z,10.37
2023-03-16T15:51:56.315Z,10.42
2023-03-16T15:53:37.674Z,10.68
2023-03-16T15:54:05.386Z,10.68
2023-03-16T15:55:19.121Z,10.92
2023-03-16T15:57:00.440Z,10.98
2023-03-16T15:57:05.419Z,10.98
2023-03-16T15:58:41.852Z,11.03
2023-03-16T16:00:23.152Z,10.77
2023-03-16T16:02:04.478Z,10.85
2023-03-16T16:03:45.870Z,10.96
2023-03-16T16:05:27.203Z,10.22
2023-03-16T16:07:08.497Z,10.15
2023-03-16T16:08:49.793Z,10.46
2023-03-16T16:10:31.411Z,10.93
2023-03-16T16:12:12.989Z,11.19
2023-03-16T16:13:54.263Z,10.58
2023-03-16T16:15:35.575Z,10.68
2023-03-16T16:17:16.862Z,11.00
2023-03-16T16:18:58.239Z,10.97
2023-03-16T16:20:39.641Z,10.12
2023-03-16T16:22:21.023Z,9.78
2023-03-16T16:24:02.381Z,10.18
2023-03-16T16:25:43.671Z,10.04
2023-03-16T16:27:24.934Z,9.44
2023-03-16T16:29:06.236Z,9.04
2023-03-16T16:30:47.544Z,9.30
2023-03-16T16:32:28.861Z,9.50
2023-03-16T16:34:10.164Z,9.29
2023-03-16T16:35:51.482Z,9.79
2023-03-16T16:37:32.828Z,9.52
2023-03-16T16:39:14.119Z,9.97
2023-03-16T16:40:55.526Z,9.86
2023-03-16T16:42:36.828Z,9.70
2023-03-16T16:44:18.122Z,9.57
2023-03-16T16:45:59.476Z,9.20
2023-03-16T16:47:40.843Z,9.21
2023-03-16T16:49:22.123Z,9.28
2023-03-16T16:51:03.401Z,9.26
2023-03-16T16:52:44.675Z,9.00
2023-03-16T16:54:25.990Z,8.78
2023-03-16T16:56:07.362Z,8.50
2023-03-16T16:57:48.724Z,7.85
2023-03-16T16:59:30.041Z,8.23
2023-03-16T17:01:11.423Z,7.76
2023-03-16T17:02:52.790Z,7.44
2023-03-16T17:04:34.110Z,7.38
2023-03-16T17:06:15.404Z,7.22
2023-03-16T17:07:56.686Z,7.68
2023-03-16T17:09:37.989Z,7.98
2023-03-16T17:11:19.283Z,8.12
2023-03-16T17:13:00.575Z,8.08
2023-03-16T17:14:41.873Z,7.36
2023-03-16T17:16:23.179Z,7.32
2023-03-16T17:18:04.465Z,7.23
2023-03-16T17:19:45.780Z,7.27
2023-03-16T17:21:27.046Z,7.51
2023-03-16T17:23:08.331Z,7.59
2023-03-16T17:24:49.655Z,7.34
2023-03-16T17:26:30.992Z,7.10
2023-03-16T17:28:12.260Z,6.62
2023-03-16T17:29:53.544Z,6.18
2023-03-16T17:31:34.860Z,6.40
2023-03-16T17:33:16.130Z,6.74
2023-03-16T17:34:57.493Z,6.86
2023-03-16T17:36:38.785Z,6.69
2023-03-16T17:38:20.073Z,6.56
2023-03-16T17:40:01.415Z,6.27
2023-03-16T17:41:42.730Z,6.69
2023-03-16T17:43:24.081Z,6.88
2023-03-16T17:45:05.361Z,6.81
2023-03-16T17:46:46.728Z,6.96
2023-03-16T17:48:28.110Z,7.11
2023-03-16T17:50:09.405Z,7.53
2023-03-16T17:51:50.677Z,7.73
2023-03-16T17:53:31.953Z,7.92
2023-03-16T17:55:13.263Z,7.75
2023-03-16T17:56:54.574Z,7.31
2023-03-16T17:58:35.856Z,7.08
2023-03-16T18:00:17.153Z,7.56
2023-03-16T18:01:58.526Z,7.88
2023-03-16T18:03:39.860Z,7.68
2023-03-16T18:05:21.215Z,7.30
2023-03-16T18:07:02.565Z,7.44
2023-03-16T18:08:43.862Z,7.66
2023-03-16T18:10:25.162Z,7.60
2023-03-16T18:12:06.489Z,7.86
2023-03-16T18:13:47.791Z,7.97
2023-03-16T18:15:29.093Z,7.82
2023-03-16T18:17:10.381Z,7.23
2023-03-16T18:18:51.657Z,6.97
2023-03-16T18:20:33.557Z,6.57
2023-03-16T18:22:15.143Z,6.98
2023-03-16T18:23:56.462Z,6.96
2023-03-16T18:25:37.780Z,7.49
2023-03-16T18:27:19.057Z,7.68
2023-03-16T18:29:00.359Z,7.70
2023-03-16T18:30:41.669Z,7.96
2023-03-16T18:32:23.205Z,8.21
2023-03-16T18:34:04.477Z,7.63
2023-03-16T18:35:45.842Z,7.32
2023-03-16T18:37:27.139Z,6.65
2023-03-16T18:39:08.422Z,6.40
2023-03-16T18:40:49.747Z,6.59
2023-03-16T18:42:31.071Z,7.13
2023-03-16T18:44:12.371Z,7.05
2023-03-16T18:45:54.867Z,6.54
2023-03-16T18:47:36.307Z,6.82
2023-03-16T18:49:17.599Z,7.16
2023-03-16T18:50:58.903Z,7.17
2023-03-16T18:52:40.214Z,6.46
2023-03-16T18:54:21.501Z,6.56
2023-03-16T18:56:02.838Z,6.75
2023-03-16T18:57:44.339Z,7.03
2023-03-16T18:59:25.661Z,7.20
2023-03-16T19:01:07.035Z,6.73
2023-03-16T19:02:48.392Z,6.10
2023-03-16T19:04:29.681Z,6.09
2023-03-16T19:06:10.978Z,6.76
2023-03-16T19:07:52.314Z,7.14
2023-03-16T19:09:33.626Z,7.30
2023-03-16T19:11:14.972Z,7.46
2023-03-16T19:12:56.295Z,7.51
2023-03-16T19:14:37.603Z,7.42
2023-03-16T19:16:18.948Z,7.34
2023-03-16T19:18:00.345Z,7.47
2023-03-16T19:19:41.735Z,7.62
2023-03-16T19:21:23.061Z,7.68
2023-03-16T19:23:04.349Z,7.78
2023-03-16T19:24:45.647Z,7.75
2023-03-16T19:26:26.920Z,7.04
2023-03-16T19:28:08.233Z,7.02
2023-03-16T19:29:52.045Z,6.97
2023-03-16T19:31:33.619Z,6.98
2023-03-16T19:33:14.999Z,7.31
2023-03-16T19:34:56.274Z,6.65
2023-03-16T19:36:37.568Z,6.55
2023-03-16T19:38:18.886Z,6.61
2023-03-16T19:40:00.207Z,7.06
2023-03-16T19:41:41.588Z,7.17
2023-03-16T19:43:22.900Z,6.87
2023-03-16T19:45:04.209Z,6.14
2023-03-16T19:46:45.530Z,5.05
2023-03-16T19:48:26.848Z,5.64
2023-03-16T19:50:08.148Z,6.13
2023-03-16T19:51:49.449Z,6.02
2023-03-16T19:53:30.760Z,5.58
2023-03-16T19:55:12.048Z,4.89
2023-03-16T19:56:53.364Z,4.85
2023-03-16T19:58:34.647Z,5.34
2023-03-16T20:00:15.951Z,5.81
2023-03-16T20:01:57.626Z,5.96
2023-03-16T20:03:39.182Z,6.21
2023-03-16T20:05:20.559Z,6.48
2023-03-16T20:07:01.902Z,6.52
2023-03-16T20:08:43.540Z,5.79
2023-03-16T20:10:24.878Z,5.85
2023-03-16T20:12:06.187Z,5.65
2023-03-16T20:13:47.504Z,5.44
2023-03-16T20:15:29.148Z,5.65
2023-03-16T20:17:10.574Z,6.13
2023-03-16T20:18:51.908Z,6.15
2023-03-16T20:20:33.209Z,5.87
2023-03-16T20:22:14.522Z,5.56
2023-03-16T20:23:55.825Z,5.83
2023-03-16T20:25:37.218Z,6.28
2023-03-16T20:27:18.699Z,6.45
2023-03-16T20:29:00.046Z,6.84
2023-03-16T20:30:41.477Z,6.79
2023-03-16T20:32:22.782Z,6.25
2023-03-16T20:34:04.145Z,5.96
2023-03-16T20:35:45.458Z,5.63
2023-03-16T20:37:26.775Z,6.01
2023-03-16T20:39:08.123Z,6.18
2023-03-16T20:40:49.471Z,6.09
2023-03-16T20:42:30.803Z,5.87
2023-03-16T20:44:12.128Z,5.87
2023-03-16T20:45:53.629Z,6.32
2023-03-16T20:47:34.986Z,6.62
2023-03-16T20:49:16.307Z,6.28
2023-03-16T20:50:57.614Z,6.11
2023-03-16T20:52:38.885Z,6.15
2023-03-16T20:54:20.148Z,6.33
2023-03-16T20:56:01.435Z,6.22
2023-03-16T20:57:42.834Z,6.41
2023-03-16T20:59:24.123Z,5.84
2023-03-16T21:01:05.523Z,5.48
2023-03-16T21:02:46.973Z,5.10
2023-03-16T21:04:28.300Z,5.38
2023-03-16T21:06:09.610Z,5.39
2023-03-16T21:07:50.914Z,5.41
2023-03-16T21:09:32.186Z,4.58
2023-03-16T21:11:13.472Z,4.00
2023-03-16T21:12:54.787Z,4.55
2023-03-16T21:14:36.150Z,5.08
2023-03-16T21:16:17.528Z,5.50
2023-03-16T21:17:58.896Z,5.81
2023-03-16T21:19:40.755Z,5.89
2023-03-16T21:21:22.031Z,5.81
2023-03-16T21:23:03.384Z,5.62
2023-03-16T21:24:44.771Z,5.10
2023-03-16T21:26:26.103Z,4.23
2023-03-16T21:28:07.403Z,4.47
2023-03-16T21:29:48.686Z,4.51
2023-03-16T21:31:30.020Z,4.58
2023-03-16T21:33:11.321Z,4.02
2023-03-16T21:34:52.640Z,3.54
2023-03-16T21:36:33.897Z,3.37
2023-03-16T21:38:15.157Z,3.92
2023-03-16T21:39:56.450Z,4.50
2023-03-16T21:41:37.796Z,4.44
2023-03-16T21:43:19.111Z,3.97
2023-03-16T21:45:00.582Z,3.44
2023-03-16T21:46:41.889Z,3.48
2023-03-16T21:48:23.276Z,3.40
2023-03-16T21:50:04.571Z,3.55
2023-03-16T21:51:45.851Z,4.01
2023-03-16T21:53:27.267Z,4.47
2023-03-16T21:55:08.633Z,4.90
2023-03-16T21:56:49.896Z,5.17
2023-03-16T21:58:31.223Z,5.32
2023-03-16T22:00:12.524Z,4.89
2023-03-16T22:02:01.637Z,4.42
2023-03-16T22:03:50.933Z,5.01
2023-03-16T22:05:32.688Z,4.92
2023-03-16T22:07:14.107Z,4.45
2023-03-16T22:08:55.436Z,4.47
2023-03-16T22:10:36.696Z,4.90
2023-03-16T22:12:18.066Z,4.77
2023-03-16T22:13:59.365Z,4.93
2023-03-16T22:15:40.608Z,4.69
2023-03-16T22:17:21.925Z,5.01
2023-03-16T22:19:03.222Z,5.13
2023-03-16T22:20:44.483Z,4.41
2023-03-16T22:22:25.786Z,3.68
2023-03-16T22:24:07.154Z,3.76
2023-03-16T22:25:48.475Z,3.82
2023-03-16T22:27:29.808Z,3.90
2023-03-16T22:29:11.089Z,3.96
2023-03-16T22:30:52.348Z,4.23
2023-03-16T22:32:33.676Z,4.29
2023-03-16T22:34:15.047Z,4.53
2023-03-16T22:35:56.355Z,4.25
2023-03-16T22:37:37.632Z,4.26
2023-03-16T22:39:19.189Z,4.38
2023-03-16T22:41:00.461Z,4.40
2023-03-16T22:42:41.732Z,4.70
2023-03-16T22:44:23.118Z,5.04
2023-03-16T22:46:04.467Z,4.45
2023-03-16T22:47:45.777Z,4.24
2023-03-16T22:49:27.080Z,4.77
2023-03-16T22:51:08.341Z,5.03
2023-03-16T22:52:49.629Z,4.39
2023-03-16T22:54:30.926Z,4.31
2023-03-16T22:56:12.201Z,3.76
2023-03-16T22:57:53.464Z,3.87
2023-03-16T22:59:34.783Z,4.49
2023-03-16T23:01:16.093Z,4.50
2023-03-16T23:02:57.398Z,4.55
2023-03-16T23:04:38.753Z,4.94
2023-03-16T23:06:20.035Z,5.32
2023-03-16T23:08:01.352Z,5.74
2023-03-16T23:09:42.688Z,5.90
2023-03-16T23:11:23.995Z,5.82
2023-03-16T23:13:05.261Z,5.30
2023-03-16T23:14:46.578Z,5.33
2023-03-16T23:16:27.965Z,4.88
2023-03-16T23:18:09.254Z,4.58
2023-03-16T23:19:50.635Z,4.52
2023-03-16T23:21:31.938Z,4.25
2023-03-16T23:23:13.244Z,4.01
2023-03-16T23:24:54.545Z,4.06
2023-03-16T23:26:35.804Z,4.34
2023-03-16T23:28:17.097Z,4.19
2023-03-16T23:29:58.384Z,4.10
2023-03-16T23:31:39.678Z,4.00
2023-03-16T23:33:20.953Z,4.22
2023-03-16T23:35:02.222Z,4.00
2023-03-16T23:36:43.521Z,4.05
2023-03-16T23:38:24.776Z,4.48
2023-03-16T23:40:06.048Z,4.74
2023-03-16T23:41:47.377Z,4.45
2023-03-16T23:43:28.676Z,4.63
2023-03-16T23:45:09.989Z,4.84
2023-03-16T23:46:51.291Z,4.74
2023-03-16T23:48:32.623Z,4.46
2023-03-16T23:50:13.920Z,4.44
2023-03-16T23:51:55.225Z,4.38
2023-03-16T23:53:36.579Z,4.84
2023-03-16T23:55:17.854Z,4.94
2023-03-16T23:56:59.172Z,5.45
2023-03-16T23:58:40.465Z,4.47
